createdAt,value
2023-01-10T00:02:18.869Z,81.40
2023-01-10T00:04:47.581Z,81.20
2023-01-10T00:07:15.703Z,81.00
2023-01-10T00:09:44.227Z,81.10
2023-01-10T00:12:29.665Z,81.10
2023-01-10T00:14:57.781Z,81.40
2023-01-10T00:17:27.762Z,81.30
2023-01-10T00:19:56.359Z,81.20
2023-01-10T00:22:25.635Z,81.10
2023-01-10T00:24:54.010Z,81.40
2023-01-10T00:27:23.630Z,81.30
2023-01-10T00:29:53.225Z,81.40
2023-01-10T00:32:22.042Z,81.30
2023-01-10T00:34:51.850Z,81.40
2023-01-10T00:37:20.000Z,81.40
2023-01-10T00:39:50.815Z,81.50
2023-01-10T00:42:36.493Z,81.50
2023-01-10T00:45:04.971Z,81.50
2023-01-10T00:47:33.548Z,81.50
2023-01-10T00:50:06.261Z,81.50
2023-01-10T00:52:34.807Z,81.30
2023-01-10T00:55:02.930Z,81.40
2023-01-10T00:57:31.585Z,81.30
2023-01-10T00:59:59.642Z,81.30
2023-01-10T01:02:28.290Z,81.30
2023-01-10T01:04:56.499Z,81.30
2023-01-10T01:07:25.930Z,81.30
2023-01-10T01:10:11.739Z,81.40
2023-01-10T01:12:39.819Z,81.40
2023-01-10T01:15:09.492Z,81.40
2023-01-10T01:17:37.579Z,81.40
2023-01-10T01:20:07.330Z,81.40
2023-01-10T01:22:37.629Z,81.50
2023-01-10T01:25:07.016Z,81.40
2023-01-10T01:27:38.136Z,81.30
2023-01-10T01:30:07.843Z,81.30
2023-01-10T01:32:36.835Z,81.50
2023-01-10T01:35:06.188Z,81.50
2023-01-10T01:37:35.255Z,81.50
2023-01-10T01:40:05.409Z,81.50
2023-01-10T01:42:36.003Z,81.60
2023-01-10T01:45:41.271Z,81.50
2023-01-10T01:48:18.746Z,81.50
2023-01-10T01:50:53.140Z,81.40
2023-01-10T01:53:27.702Z,81.20
2023-01-10T01:56:01.733Z,81.30
2023-01-10T01:58:36.919Z,81.30
2023-01-10T02:01:05.709Z,81.30
2023-01-10T02:03:34.966Z,81.30
2023-01-10T02:06:03.608Z,81.50
2023-01-10T02:08:31.894Z,81.50
2023-01-10T02:11:08.950Z,81.50
2023-01-10T02:13:41.677Z,82.60
2023-01-10T02:16:11.259Z,81.70
2023-01-10T02:18:43.021Z,81.70
2023-01-10T02:21:36.884Z,81.70
2023-01-10T02:24:32.284Z,81.70
2023-01-10T02:27:12.517Z,81.60
2023-01-10T02:30:19.661Z,81.50
2023-01-10T02:33:04.495Z,81.70
2023-01-10T02:35:56.888Z,81.50
2023-01-10T02:38:36.286Z,81.60
2023-01-10T02:41:11.278Z,81.60
2023-01-10T02:43:45.643Z,81.70
2023-01-10T02:46:18.028Z,81.70
2023-01-10T02:48:48.050Z,81.70
2023-01-10T02:51:21.507Z,81.80
2023-01-10T02:53:55.008Z,81.90
2023-01-10T02:57:13.679Z,81.90
2023-01-10T03:00:18.730Z,82.10
2023-01-10T03:02:59.083Z,82.00
2023-01-10T03:05:39.080Z,82.00
2023-01-10T03:08:24.254Z,82.00
2023-01-10T03:10:57.704Z,82.00
2023-01-10T03:13:31.035Z,82.10
2023-01-10T03:16:01.587Z,82.10
2023-01-10T03:18:34.403Z,82.10
2023-01-10T03:21:07.073Z,82.10
2023-01-10T03:23:36.188Z,82.10
2023-01-10T03:26:06.839Z,82.20
2023-01-10T03:32:19.254Z,82.30
2023-01-10T03:34:48.255Z,82.10
2023-01-10T03:37:23.092Z,82.30
2023-01-10T03:39:59.534Z,82.40
2023-01-10T03:42:53.202Z,82.50
2023-01-10T03:45:26.568Z,82.70
2023-01-10T03:47:57.048Z,82.70
2023-01-10T03:50:27.698Z,82.80
2023-01-10T03:52:57.870Z,82.80
2023-01-10T03:55:29.613Z,82.90
2023-01-10T03:57:57.725Z,83.10
2023-01-10T04:00:26.696Z,83.00
2023-01-10T04:02:55.788Z,83.00
2023-01-10T04:05:24.403Z,83.00
2023-01-10T04:07:52.533Z,83.00
2023-01-10T04:10:24.557Z,83.10
2023-01-10T04:12:53.350Z,83.10
2023-01-10T04:15:22.533Z,83.00
2023-01-10T04:17:51.134Z,83.00
2023-01-10T04:20:19.461Z,83.10
2023-01-10T04:22:50.315Z,83.00
2023-01-10T04:25:18.929Z,83.00
2023-01-10T04:27:50.684Z,83.10
2023-01-10T04:30:19.795Z,83.00
2023-01-10T04:32:49.735Z,83.10
2023-01-10T04:35:18.059Z,83.10
2023-01-10T04:37:46.670Z,83.20
2023-01-10T04:40:17.649Z,83.20
2023-01-10T04:42:45.848Z,83.20
2023-01-10T04:45:18.218Z,83.20
2023-01-10T04:47:51.040Z,83.20
2023-01-10T04:50:20.117Z,83.20
2023-01-10T04:52:51.449Z,83.20
2023-01-10T04:55:19.570Z,83.20
2023-01-10T04:57:48.691Z,83.00
2023-01-10T05:00:19.004Z,83.10
2023-01-10T05:02:47.800Z,83.10
2023-01-10T05:05:17.226Z,83.00
2023-01-10T05:07:47.816Z,83.10
2023-01-10T05:10:16.069Z,83.00
2023-01-10T05:12:44.702Z,83.10
2023-01-10T05:15:13.817Z,83.20
2023-01-10T05:17:43.783Z,83.10
2023-01-10T05:20:13.990Z,83.00
2023-01-10T05:22:42.622Z,83.10
2023-01-10T05:25:11.221Z,83.10
2023-01-10T05:27:43.695Z,83.00
2023-01-10T05:30:14.035Z,83.00
2023-01-10T05:32:44.096Z,82.80
2023-01-10T05:35:12.494Z,82.80
2023-01-10T05:37:41.123Z,82.80
2023-01-10T05:40:10.818Z,82.80
2023-01-10T05:42:39.103Z,82.80
2023-01-10T05:45:08.056Z,82.60
2023-01-10T05:47:36.694Z,82.70
2023-01-10T05:50:06.911Z,82.60
2023-01-10T05:52:35.051Z,82.60
2023-01-10T05:55:03.241Z,82.50
2023-01-10T05:57:31.378Z,82.30
2023-01-10T05:59:59.975Z,82.30
2023-01-10T06:02:28.272Z,82.30
2023-01-10T06:04:56.526Z,82.30
2023-01-10T06:07:26.646Z,82.40
2023-01-10T06:09:55.689Z,82.30
2023-01-10T06:12:24.058Z,82.10
2023-01-10T06:14:52.221Z,82.00
2023-01-10T06:17:20.369Z,82.10
2023-01-10T06:19:48.560Z,82.00
2023-01-10T06:22:17.155Z,82.10
2023-01-10T06:24:46.625Z,82.10
2023-01-10T06:27:15.267Z,82.10
2023-01-10T06:29:43.880Z,82.10
2023-01-10T06:32:12.027Z,82.10
2023-01-10T06:34:40.663Z,82.10
2023-01-10T06:37:08.904Z,82.20
2023-01-10T06:39:37.107Z,82.10
2023-01-10T06:42:06.737Z,82.10
2023-01-10T06:44:35.317Z,82.20
2023-01-10T06:47:03.462Z,82.30
2023-01-10T06:49:31.660Z,81.80
2023-01-10T06:52:00.282Z,82.20
2023-01-10T06:54:28.450Z,82.10
2023-01-10T06:56:56.567Z,82.20
2023-01-10T06:59:26.577Z,82.10
2023-01-10T07:01:54.827Z,82.10
2023-01-10T07:04:23.547Z,81.90
2023-01-10T07:06:51.682Z,82.10
2023-01-10T07:09:20.313Z,82.00
2023-01-10T07:11:48.515Z,81.90
2023-01-10T07:14:17.098Z,81.90
2023-01-10T07:16:46.618Z,81.90
2023-01-10T07:19:17.738Z,81.90
2023-01-10T07:21:46.318Z,81.90
2023-01-10T07:24:14.433Z,81.90
2023-01-10T07:26:42.552Z,81.90
2023-01-10T07:29:10.889Z,81.70
2023-01-10T07:31:39.094Z,81.70
2023-01-10T07:34:09.090Z,81.70
2023-01-10T07:36:39.440Z,81.70
2023-01-10T07:39:08.226Z,81.70
2023-01-10T07:41:36.825Z,81.70
2023-01-10T07:44:05.507Z,81.80
2023-01-10T07:46:33.738Z,81.70
2023-01-10T07:49:01.913Z,81.70
2023-01-10T07:51:31.916Z,81.40
2023-01-10T07:54:00.107Z,81.40
2023-01-10T07:56:28.843Z,81.50
2023-01-10T07:58:57.415Z,81.40
2023-01-10T08:01:26.175Z,81.40
2023-01-10T08:03:54.991Z,81.50
2023-01-10T08:06:23.183Z,81.30
2023-01-10T08:08:53.232Z,81.10
2023-01-10T08:11:21.484Z,81.20
2023-01-10T08:13:49.635Z,81.20
2023-01-10T08:16:18.385Z,81.30
2023-01-10T08:18:47.096Z,81.30
2023-01-10T08:21:15.751Z,81.30
2023-01-10T08:23:44.364Z,81.30
2023-01-10T08:26:13.896Z,81.30
2023-01-10T08:28:42.513Z,81.20
2023-01-10T08:31:11.724Z,81.30
2023-01-10T08:33:40.518Z,81.30
2023-01-10T08:36:17.009Z,81.30
2023-01-10T08:38:45.719Z,81.10
2023-01-10T08:41:15.989Z,82.10
2023-01-10T08:43:44.146Z,81.30
2023-01-10T08:46:12.320Z,81.20
2023-01-10T08:48:41.083Z,81.00
2023-01-10T08:51:10.901Z,81.00
2023-01-10T08:53:41.585Z,81.20
2023-01-10T08:56:10.403Z,81.20
2023-01-10T08:58:40.485Z,81.20
2023-01-10T09:01:11.909Z,81.20
2023-01-10T09:03:40.997Z,81.20
2023-01-10T09:06:10.020Z,80.90
2023-01-10T09:08:38.771Z,80.90
2023-01-10T09:11:08.038Z,80.80
2023-01-10T09:13:36.143Z,80.80
2023-01-10T09:16:06.672Z,80.80
2023-01-10T09:18:35.017Z,80.80
2023-01-10T09:21:05.754Z,80.70
2023-01-10T09:23:36.935Z,80.80
2023-01-10T09:26:05.807Z,80.70
2023-01-10T09:28:34.218Z,80.60
2023-01-10T09:31:04.809Z,80.40
2023-01-10T09:33:45.672Z,80.40
2023-01-10T09:36:15.862Z,80.40
2023-01-10T09:38:45.003Z,80.30
2023-01-10T09:41:25.090Z,80.10
2023-01-10T09:44:02.462Z,80.40
2023-01-10T09:46:41.443Z,80.30
2023-01-10T09:49:24.238Z,80.00
2023-01-10T09:51:54.512Z,80.00
2023-01-10T09:54:28.614Z,79.70
2023-01-10T09:56:59.453Z,79.40
2023-01-10T09:59:32.829Z,79.60
2023-01-10T10:02:08.200Z,79.70
2023-01-10T10:04:41.287Z,79.70
2023-01-10T10:07:14.542Z,79.60
2023-01-10T10:09:44.719Z,79.60
2023-01-10T10:12:27.921Z,79.90
2023-01-10T10:15:11.119Z,79.70
2023-01-10T10:17:45.791Z,79.70
2023-01-10T10:20:32.830Z,79.30
2023-01-10T10:23:20.064Z,78.70
2023-01-10T10:26:00.786Z,78.90
2023-01-10T10:29:01.849Z,79.20
2023-01-10T10:31:41.149Z,79.10
2023-01-10T10:34:19.227Z,79.10
2023-01-10T10:36:53.568Z,79.10
2023-01-10T10:39:26.414Z,78.80
2023-01-10T10:41:56.730Z,78.70
2023-01-10T10:44:35.835Z,78.80
2023-01-10T10:47:04.777Z,78.70
2023-01-10T10:49:39.563Z,78.80
2023-01-10T10:52:18.666Z,78.70
2023-01-10T10:54:47.968Z,78.60
2023-01-10T10:57:17.047Z,78.80
2023-01-10T10:59:48.163Z,78.80
2023-01-10T11:02:30.051Z,78.60
2023-01-10T11:05:00.781Z,78.20
2023-01-10T11:07:34.710Z,78.30
2023-01-10T11:10:25.366Z,78.60
2023-01-10T11:12:54.549Z,78.00
2023-01-10T11:15:39.422Z,78.10
2023-01-10T11:18:12.163Z,77.80
2023-01-10T11:20:49.030Z,77.80
2023-01-10T11:23:30.647Z,77.60
2023-01-10T11:25:58.850Z,77.60
2023-01-10T11:28:31.124Z,77.40
2023-01-10T11:31:01.473Z,77.30
2023-01-10T11:33:34.148Z,76.70
2023-01-10T11:36:05.119Z,77.00
2023-01-10T11:38:35.570Z,76.50
2023-01-10T11:41:05.776Z,77.80
2023-01-10T11:43:37.282Z,77.30
2023-01-10T11:46:14.454Z,77.10
2023-01-10T11:51:37.091Z,76.90
2023-01-10T11:54:12.205Z,76.80
2023-01-10T11:56:43.484Z,76.00
2023-01-10T11:59:16.565Z,76.30
2023-01-10T12:01:48.204Z,76.00
2023-01-10T12:04:17.725Z,76.20
2023-01-10T12:06:48.351Z,75.90
2023-01-10T12:09:37.300Z,76.20
2023-01-10T12:12:07.758Z,76.00
2023-01-10T12:14:36.169Z,76.90
2023-01-10T12:17:05.309Z,75.90
2023-01-10T12:19:34.101Z,75.90
2023-01-10T12:22:06.321Z,76.00
2023-01-10T12:24:41.006Z,75.90
2023-01-10T12:27:12.690Z,75.60
2023-01-10T12:29:44.316Z,75.90
2023-01-10T12:32:21.258Z,76.00
2023-01-10T12:34:58.382Z,75.40
2023-01-10T12:37:37.921Z,75.20
2023-01-10T12:40:15.638Z,75.40
2023-01-10T12:43:10.950Z,75.60
2023-01-10T12:45:43.672Z,75.40
2023-01-10T12:48:18.113Z,75.00
2023-01-10T12:50:53.946Z,75.30
2023-01-10T12:53:37.715Z,75.00
2023-01-10T12:56:13.156Z,75.00
2023-01-10T12:58:44.251Z,75.20
2023-01-10T13:01:17.277Z,74.70
2023-01-10T13:03:51.925Z,74.60
2023-01-10T13:06:28.640Z,74.60
2023-01-10T13:08:58.855Z,74.50
2023-01-10T13:11:33.462Z,75.00
2023-01-10T13:14:04.526Z,74.70
2023-01-10T13:16:40.852Z,74.70
2023-01-10T13:19:28.295Z,74.80
2023-01-10T13:22:21.434Z,73.00
2023-01-10T13:24:58.177Z,73.10
2023-01-10T13:27:32.337Z,73.40
2023-01-10T13:30:00.841Z,73.60
2023-01-10T13:32:32.475Z,73.60
2023-01-10T13:35:15.328Z,73.50
2023-01-10T13:37:45.744Z,73.00
2023-01-10T13:40:23.391Z,73.40
2023-01-10T13:43:23.834Z,73.30
2023-01-10T13:46:50.555Z,73.60
2023-01-10T13:49:44.635Z,73.60
2023-01-10T13:52:32.145Z,73.90
2023-01-10T13:55:03.650Z,73.20
2023-01-10T13:57:55.034Z,73.40
2023-01-10T14:00:43.858Z,72.70
2023-01-10T14:03:50.822Z,73.40
2023-01-10T14:06:41.649Z,74.00
2023-01-10T14:09:40.299Z,73.60
2023-01-10T14:12:18.475Z,73.00
2023-01-10T14:14:54.159Z,73.30
2023-01-10T14:17:25.249Z,72.80
2023-01-10T14:20:07.990Z,73.00
2023-01-10T14:22:39.696Z,73.10
2023-01-10T14:25:17.468Z,73.20
2023-01-10T14:27:48.180Z,73.20
2023-01-10T14:30:20.592Z,73.30
2023-01-10T14:32:52.639Z,73.40
2023-01-10T14:35:24.965Z,73.60
2023-01-10T14:37:56.738Z,73.60
2023-01-10T14:40:30.098Z,73.70
2023-01-10T14:43:03.249Z,73.70
2023-01-10T14:45:36.611Z,74.00
2023-01-10T14:48:27.368Z,74.00
2023-01-10T14:51:12.179Z,74.00
2023-01-10T14:53:41.341Z,74.30
2023-01-10T14:56:22.374Z,74.20
2023-01-10T14:58:51.119Z,74.50
2023-01-10T15:01:24.752Z,74.50
2023-01-10T15:03:54.779Z,75.60
2023-01-10T15:06:26.167Z,74.70
2023-01-10T15:08:59.885Z,74.70
2023-01-10T15:11:30.721Z,75.00
2023-01-10T15:14:04.400Z,75.00
2023-01-10T15:16:33.919Z,75.00
2023-01-10T15:19:02.592Z,75.00
2023-01-10T15:21:32.605Z,75.00
2023-01-10T15:24:00.757Z,75.00
2023-01-10T15:26:33.290Z,75.20
2023-01-10T15:29:10.471Z,75.40
2023-01-10T15:31:42.655Z,75.80
2023-01-10T15:34:15.778Z,75.80
2023-01-10T15:36:51.046Z,75.80
2023-01-10T15:39:23.355Z,75.90
2023-01-10T15:41:56.686Z,75.80
2023-01-10T15:44:35.437Z,75.80
2023-01-10T15:47:04.748Z,76.00
2023-01-10T15:49:33.426Z,75.90
2023-01-10T15:52:03.564Z,75.80
2023-01-10T15:54:34.786Z,75.80
2023-01-10T15:57:08.150Z,75.90
2023-01-10T15:59:39.887Z,76.20
2023-01-10T16:02:23.110Z,76.00
2023-01-10T16:04:53.710Z,75.70
2023-01-10T16:07:27.671Z,75.60
2023-01-10T16:10:00.369Z,75.60
2023-01-10T16:12:54.076Z,75.80
2023-01-10T16:15:25.193Z,76.00
2023-01-10T16:17:54.142Z,75.90
2023-01-10T16:20:25.070Z,75.80
2023-01-10T16:22:55.881Z,75.60
2023-01-10T16:25:29.126Z,75.60
2023-01-10T16:27:57.217Z,75.60
2023-01-10T16:30:28.301Z,75.50
2023-01-10T16:32:59.004Z,75.60
2023-01-10T16:35:27.937Z,75.60
2023-01-10T16:37:59.265Z,75.80
2023-01-10T16:40:29.494Z,76.20
2023-01-10T16:43:14.815Z,76.30
2023-01-10T16:45:43.020Z,76.30
2023-01-10T16:48:11.762Z,76.30
2023-01-10T16:50:41.833Z,76.30
2023-01-10T16:53:13.469Z,76.40
2023-01-10T16:55:43.816Z,76.40
2023-01-10T16:58:14.281Z,76.40
2023-01-10T17:00:44.592Z,76.20
2023-01-10T17:03:17.188Z,76.40
2023-01-10T17:05:45.546Z,76.50
2023-01-10T17:08:18.263Z,76.70
2023-01-10T17:10:48.776Z,76.80
2023-01-10T17:13:23.851Z,76.70
2023-01-10T17:15:52.004Z,76.70
2023-01-10T17:18:20.715Z,75.90
2023-01-10T17:20:49.076Z,77.30
2023-01-10T17:23:18.959Z,76.60
2023-01-10T17:25:49.762Z,76.90
2023-01-10T17:28:19.471Z,76.90
2023-01-10T17:30:48.136Z,77.00
2023-01-10T17:33:16.798Z,77.00
2023-01-10T17:35:46.145Z,77.00
2023-01-10T17:38:17.242Z,77.20
2023-01-10T17:40:48.497Z,77.30
2023-01-10T17:43:19.421Z,77.50
2023-01-10T17:45:49.911Z,77.30
2023-01-10T17:48:20.360Z,77.20
2023-01-10T17:50:50.477Z,77.20
2023-01-10T17:53:19.106Z,77.00
2023-01-10T17:55:49.733Z,77.00
2023-01-10T17:58:19.963Z,77.00
2023-01-10T18:00:48.987Z,77.00
2023-01-10T18:03:17.594Z,77.20
2023-01-10T18:05:52.634Z,77.50
2023-01-10T18:08:22.017Z,77.40
2023-01-10T18:10:52.213Z,77.30
2023-01-10T18:13:21.604Z,76.30
2023-01-10T18:15:52.349Z,77.50
2023-01-10T18:18:23.082Z,77.70
2023-01-10T18:20:53.201Z,77.90
2023-01-10T18:23:25.273Z,77.90
2023-01-10T18:25:57.442Z,77.80
2023-01-10T18:28:39.513Z,77.70
2023-01-10T18:31:11.567Z,77.70
2023-01-10T18:33:39.946Z,77.70
2023-01-10T18:36:10.236Z,77.60
2023-01-10T18:38:38.480Z,77.60
2023-01-10T18:41:09.294Z,77.60
2023-01-10T18:43:37.486Z,77.70
2023-01-10T18:46:07.988Z,77.70
2023-01-10T18:48:36.125Z,77.90
2023-01-10T18:51:05.829Z,78.00
2023-01-10T18:53:34.524Z,78.20
2023-01-10T18:56:05.155Z,78.30
2023-01-10T18:58:36.718Z,78.50
2023-01-10T19:01:09.253Z,78.50
2023-01-10T19:03:37.911Z,78.60
2023-01-10T19:06:10.501Z,78.60
2023-01-10T19:08:39.884Z,78.60
2023-01-10T19:11:14.340Z,78.60
2023-01-10T19:13:45.777Z,78.60
2023-01-10T19:16:18.513Z,78.50
2023-01-10T19:18:50.526Z,78.70
2023-01-10T19:21:18.656Z,78.80
2023-01-10T19:23:49.175Z,78.80
2023-01-10T19:26:17.737Z,78.70
2023-01-10T19:28:48.857Z,78.50
2023-01-10T19:31:18.275Z,78.30
2023-01-10T19:33:48.572Z,78.40
2023-01-10T19:36:17.038Z,78.30
2023-01-10T19:38:46.055Z,78.30
2023-01-10T19:41:15.486Z,78.20
2023-01-10T19:43:43.792Z,78.10
2023-01-10T19:46:15.748Z,77.90
2023-01-10T19:48:44.383Z,77.70
2023-01-10T19:51:14.381Z,77.60
2023-01-10T19:53:45.966Z,78.50
2023-01-10T19:56:18.369Z,77.70
2023-01-10T19:58:47.318Z,77.70
2023-01-10T20:01:19.686Z,77.70
2023-01-10T20:03:48.672Z,77.50
2023-01-10T20:06:20.264Z,77.80
2023-01-10T20:08:49.237Z,77.70
2023-01-10T20:11:18.676Z,77.90
2023-01-10T20:13:49.767Z,78.10
2023-01-10T20:16:21.968Z,78.50
2023-01-10T20:18:50.838Z,78.80
2023-01-10T20:21:20.772Z,78.80
2023-01-10T20:23:49.100Z,78.80
2023-01-10T20:26:19.316Z,78.50
2023-01-10T20:28:48.571Z,78.40
2023-01-10T20:31:20.783Z,78.30
2023-01-10T20:33:50.078Z,78.30
2023-01-10T20:36:21.268Z,78.30
2023-01-10T20:38:50.402Z,78.20
2023-01-10T20:41:21.747Z,78.10
2023-01-10T20:43:50.332Z,78.00
2023-01-10T20:46:22.074Z,78.00
2023-01-10T20:48:50.835Z,78.10
2023-01-10T20:51:22.070Z,78.10
2023-01-10T20:53:51.378Z,78.10
2023-01-10T20:56:22.279Z,77.90
2023-01-10T20:58:51.727Z,77.90
2023-01-10T21:01:33.602Z,77.90
2023-01-10T21:04:03.377Z,77.70
2023-01-10T21:06:31.842Z,77.70
2023-01-10T21:09:00.591Z,77.60
2023-01-10T21:11:29.340Z,77.50
2023-01-10T21:13:58.511Z,78.30
2023-01-10T21:16:28.121Z,77.40
2023-01-10T21:18:57.421Z,77.00
2023-01-10T21:21:25.566Z,77.00
2023-01-10T21:23:56.049Z,77.20
2023-01-10T21:26:24.606Z,77.30
2023-01-10T21:28:53.252Z,77.00
2023-01-10T21:31:22.709Z,76.80
2023-01-10T21:33:52.343Z,76.80
2023-01-10T21:36:20.459Z,76.60
2023-01-10T21:38:49.620Z,76.40
2023-01-10T21:41:40.775Z,76.10
2023-01-10T21:44:09.437Z,76.30
2023-01-10T21:46:38.169Z,76.60
2023-01-10T21:49:08.162Z,76.70
2023-01-10T21:51:36.321Z,76.70
2023-01-10T21:54:05.085Z,77.10
2023-01-10T21:56:33.324Z,77.00
2023-01-10T21:59:01.977Z,76.90
2023-01-10T22:01:30.478Z,76.90
2023-01-10T22:03:58.968Z,76.60
2023-01-10T22:06:28.539Z,76.80
2023-01-10T22:08:56.715Z,77.00
2023-01-10T22:11:24.856Z,76.70
2023-01-10T22:13:54.561Z,76.80
2023-01-10T22:16:23.202Z,76.70
2023-01-10T22:18:51.829Z,76.50
2023-01-10T22:21:20.019Z,76.60
2023-01-10T22:23:50.009Z,76.60
2023-01-10T22:26:18.195Z,76.40
2023-01-10T22:28:46.317Z,76.80
2023-01-10T22:31:14.725Z,76.60
2023-01-10T22:33:43.139Z,76.40
2023-01-10T22:36:15.733Z,76.80
2023-01-10T22:38:44.563Z,76.40
2023-01-10T22:41:16.767Z,76.30
2023-01-10T22:43:45.453Z,76.80
2023-01-10T22:46:16.322Z,76.60
2023-01-10T22:48:45.149Z,77.40
2023-01-10T22:51:13.819Z,76.30
2023-01-10T22:53:42.055Z,76.10
2023-01-10T22:56:12.349Z,76.40
2023-01-10T22:58:48.239Z,76.40
2023-01-10T23:01:18.079Z,76.40
2023-01-10T23:03:46.459Z,76.40
2023-01-10T23:06:15.835Z,76.10
2023-01-10T23:08:43.977Z,76.50
2023-01-10T23:11:14.059Z,76.30
2023-01-10T23:13:43.728Z,76.10
2023-01-10T23:16:14.439Z,76.40
2023-01-10T23:18:42.691Z,76.70
2023-01-10T23:21:10.954Z,76.70
2023-01-10T23:23:39.612Z,76.60
2023-01-10T23:26:10.666Z,76.90
2023-01-10T23:28:40.676Z,76.70
2023-01-10T23:31:10.693Z,76.70
2023-01-10T23:33:38.900Z,76.60
2023-01-10T23:36:07.747Z,76.80
2023-01-10T23:38:36.469Z,76.80
2023-01-10T23:41:05.114Z,76.70
2023-01-10T23:43:34.348Z,76.80
2023-01-10T23:46:03.076Z,77.20
2023-01-10T23:48:32.794Z,77.20
2023-01-10T23:51:01.531Z,76.90
2023-01-10T23:53:29.686Z,76.80
2023-01-10T23:55:58.685Z,76.70
2023-01-10T23:58:27.291Z,77.00
